sensor_id;sensor_type;location;lat;lon;timestamp;P1;durP1;ratioP1;P2;durP2;ratioP2
35667;SDS011;22158;59.280;17.806;2023-07-29T00:00:26;2.40;;;1.52;;
35667;SDS011;22158;59.280;17.806;2023-07-29T00:02:53;2.38;;;1.75;;
35667;SDS011;22158;59.280;17.806;2023-07-29T00:05:18;9.07;;;1.77;;
35667;SDS011;22158;59.280;17.806;2023-07-29T00:07:44;2.72;;;1.90;;
35667;SDS011;22158;59.280;17.806;2023-07-29T00:10:09;3.38;;;1.58;;
35667;SDS011;22158;59.280;17.806;2023-07-29T00:12:35;2.67;;;1.77;;
35667;SDS011;22158;59.280;17.806;2023-07-29T00:15:00;2.67;;;1.70;;
35667;SDS011;22158;59.280;17.806;2023-07-29T00:17:26;2.75;;;1.80;;
35667;SDS011;22158;59.280;17.806;2023-07-29T00:19:51;2.17;;;1.52;;
35667;SDS011;22158;59.280;17.806;2023-07-29T00:22:17;2.58;;;1.80;;
35667;SDS011;22158;59.280;17.806;2023-07-29T00:24:42;2.20;;;1.70;;
35667;SDS011;22158;59.280;17.806;2023-07-29T00:27:08;2.35;;;1.52;;
35667;SDS011;22158;59.280;17.806;2023-07-29T00:29:34;3.00;;;1.65;;
35667;SDS011;22158;59.280;17.806;2023-07-29T00:31:59;2.25;;;1.70;;
35667;SDS011;22158;59.280;17.806;2023-07-29T00:34:25;2.05;;;1.48;;
35667;SDS011;22158;59.280;17.806;2023-07-29T00:36:50;3.00;;;1.83;;
35667;SDS011;22158;59.280;17.806;2023-07-29T00:39:16;2.67;;;1.65;;
35667;SDS011;22158;59.280;17.806;2023-07-29T00:41:41;2.50;;;1.50;;
35667;SDS011;22158;59.280;17.806;2023-07-29T00:44:07;4.22;;;1.80;;
35667;SDS011;22158;59.280;17.806;2023-07-29T00:46:33;2.08;;;1.70;;
35667;SDS011;22158;59.280;17.806;2023-07-29T00:49:01;4.38;;;1.92;;
35667;SDS011;22158;59.280;17.806;2023-07-29T00:51:27;4.25;;;1.98;;
35667;SDS011;22158;59.280;17.806;2023-07-29T00:53:52;2.50;;;2.17;;
35667;SDS011;22158;59.280;17.806;2023-07-29T00:56:18;2.92;;;2.08;;
35667;SDS011;22158;59.280;17.806;2023-07-29T00:58:44;2.95;;;1.80;;
35667;SDS011;22158;59.280;17.806;2023-07-29T01:01:11;2.50;;;1.80;;
35667;SDS011;22158;59.280;17.806;2023-07-29T01:03:37;2.95;;;1.75;;
35667;SDS011;22158;59.280;17.806;2023-07-29T01:06:12;2.83;;;1.90;;
35667;SDS011;22158;59.280;17.806;2023-07-29T01:08:52;3.55;;;2.03;;
35667;SDS011;22158;59.280;17.806;2023-07-29T01:14:29;4.45;;;2.03;;
35667;SDS011;22158;59.280;17.806;2023-07-29T01:17:13;1.77;;;1.50;;
35667;SDS011;22158;59.280;17.806;2023-07-29T01:22:30;2.30;;;1.90;;
35667;SDS011;22158;59.280;17.806;2023-07-29T01:25:00;4.68;;;1.80;;
35667;SDS011;22158;59.280;17.806;2023-07-29T01:27:26;2.63;;;1.60;;
35667;SDS011;22158;59.280;17.806;2023-07-29T01:29:52;2.42;;;1.73;;
35667;SDS011;22158;59.280;17.806;2023-07-29T01:35:06;4.57;;;1.60;;
35667;SDS011;22158;59.280;17.806;2023-07-29T01:37:37;2.10;;;1.83;;
35667;SDS011;22158;59.280;17.806;2023-07-29T01:40:04;3.28;;;1.88;;
35667;SDS011;22158;59.280;17.806;2023-07-29T01:42:33;3.03;;;2.00;;
35667;SDS011;22158;59.280;17.806;2023-07-29T01:44:59;2.22;;;1.85;;
35667;SDS011;22158;59.280;17.806;2023-07-29T01:47:25;3.05;;;1.67;;
35667;SDS011;22158;59.280;17.806;2023-07-29T01:49:51;2.05;;;1.52;;
35667;SDS011;22158;59.280;17.806;2023-07-29T01:52:16;2.72;;;1.88;;
35667;SDS011;22158;59.280;17.806;2023-07-29T01:54:42;2.38;;;1.75;;
35667;SDS011;22158;59.280;17.806;2023-07-29T01:57:07;2.17;;;1.63;;
35667;SDS011;22158;59.280;17.806;2023-07-29T01:59:33;3.97;;;2.03;;
35667;SDS011;22158;59.280;17.806;2023-07-29T02:01:58;3.40;;;2.22;;
35667;SDS011;22158;59.280;17.806;2023-07-29T02:04:24;6.25;;;2.28;;
35667;SDS011;22158;59.280;17.806;2023-07-29T02:06:49;3.35;;;1.73;;
35667;SDS011;22158;59.280;17.806;2023-07-29T02:09:15;1.85;;;1.55;;
35667;SDS011;22158;59.280;17.806;2023-07-29T02:11:41;2.70;;;1.92;;
35667;SDS011;22158;59.280;17.806;2023-07-29T02:14:06;5.38;;;2.30;;
35667;SDS011;22158;59.280;17.806;2023-07-29T02:16:32;2.10;;;1.70;;
35667;SDS011;22158;59.280;17.806;2023-07-29T02:18:59;4.30;;;2.33;;
35667;SDS011;22158;59.280;17.806;2023-07-29T02:21:25;7.55;;;2.10;;
35667;SDS011;22158;59.280;17.806;2023-07-29T02:23:50;3.92;;;1.70;;
35667;SDS011;22158;59.280;17.806;2023-07-29T02:26:16;2.60;;;1.58;;
35667;SDS011;22158;59.280;17.806;2023-07-29T02:28:42;3.83;;;1.90;;
35667;SDS011;22158;59.280;17.806;2023-07-29T02:31:15;3.10;;;1.88;;
35667;SDS011;22158;59.280;17.806;2023-07-29T02:33:41;3.15;;;2.00;;
35667;SDS011;22158;59.280;17.806;2023-07-29T02:36:07;7.25;;;2.17;;
35667;SDS011;22158;59.280;17.806;2023-07-29T02:38:33;2.00;;;1.70;;
35667;SDS011;22158;59.280;17.806;2023-07-29T02:40:58;3.08;;;1.98;;
35667;SDS011;22158;59.280;17.806;2023-07-29T02:43:24;3.33;;;1.80;;
35667;SDS011;22158;59.280;17.806;2023-07-29T02:45:50;2.28;;;1.65;;
35667;SDS011;22158;59.280;17.806;2023-07-29T02:48:15;3.22;;;1.63;;
35667;SDS011;22158;59.280;17.806;2023-07-29T02:50:41;3.00;;;1.55;;
35667;SDS011;22158;59.280;17.806;2023-07-29T02:53:06;2.45;;;1.60;;
35667;SDS011;22158;59.280;17.806;2023-07-29T02:55:32;3.38;;;1.77;;
35667;SDS011;22158;59.280;17.806;2023-07-29T02:57:57;1.73;;;1.50;;
35667;SDS011;22158;59.280;17.806;2023-07-29T03:00:23;2.35;;;1.70;;
35667;SDS011;22158;59.280;17.806;2023-07-29T03:02:49;3.35;;;1.73;;
35667;SDS011;22158;59.280;17.806;2023-07-29T03:05:15;2.63;;;1.77;;
35667;SDS011;22158;59.280;17.806;2023-07-29T03:07:41;3.47;;;1.73;;
35667;SDS011;22158;59.280;17.806;2023-07-29T03:10:06;3.47;;;2.13;;
35667;SDS011;22158;59.280;17.806;2023-07-29T03:12:32;2.15;;;1.50;;
35667;SDS011;22158;59.280;17.806;2023-07-29T03:14:58;1.80;;;1.45;;
35667;SDS011;22158;59.280;17.806;2023-07-29T03:17:25;1.88;;;1.35;;
35667;SDS011;22158;59.280;17.806;2023-07-29T03:19:51;2.47;;;1.77;;
35667;SDS011;22158;59.280;17.806;2023-07-29T03:22:17;5.47;;;2.15;;
35667;SDS011;22158;59.280;17.806;2023-07-29T03:24:42;2.22;;;1.40;;
35667;SDS011;22158;59.280;17.806;2023-07-29T03:27:08;2.05;;;1.65;;
35667;SDS011;22158;59.280;17.806;2023-07-29T03:29:35;5.40;;;1.73;;
35667;SDS011;22158;59.280;17.806;2023-07-29T03:32:00;3.53;;;2.08;;
35667;SDS011;22158;59.280;17.806;2023-07-29T03:34:26;2.58;;;1.85;;
35667;SDS011;22158;59.280;17.806;2023-07-29T03:36:51;3.88;;;1.67;;
35667;SDS011;22158;59.280;17.806;2023-07-29T03:39:17;2.47;;;1.60;;
35667;SDS011;22158;59.280;17.806;2023-07-29T03:41:42;2.38;;;1.90;;
35667;SDS011;22158;59.280;17.806;2023-07-29T03:44:08;3.05;;;2.05;;
35667;SDS011;22158;59.280;17.806;2023-07-29T03:46:34;2.03;;;1.80;;
35667;SDS011;22158;59.280;17.806;2023-07-29T03:48:59;2.30;;;1.80;;
35667;SDS011;22158;59.280;17.806;2023-07-29T03:51:25;3.22;;;2.42;;
35667;SDS011;22158;59.280;17.806;2023-07-29T03:53:50;3.42;;;2.08;;
35667;SDS011;22158;59.280;17.806;2023-07-29T03:56:16;3.85;;;2.10;;
35667;SDS011;22158;59.280;17.806;2023-07-29T03:58:42;4.28;;;2.08;;
35667;SDS011;22158;59.280;17.806;2023-07-29T04:01:09;3.13;;;1.90;;
35667;SDS011;22158;59.280;17.806;2023-07-29T04:03:34;2.60;;;2.03;;
35667;SDS011;22158;59.280;17.806;2023-07-29T04:06:00;2.92;;;1.65;;
35667;SDS011;22158;59.280;17.806;2023-07-29T04:08:26;4.82;;;1.90;;
35667;SDS011;22158;59.280;17.806;2023-07-29T04:10:51;2.60;;;1.90;;
35667;SDS011;22158;59.280;17.806;2023-07-29T04:13:17;4.00;;;1.88;;
35667;SDS011;22158;59.280;17.806;2023-07-29T04:15:43;3.53;;;2.33;;
35667;SDS011;22158;59.280;17.806;2023-07-29T04:18:08;3.28;;;1.95;;
35667;SDS011;22158;59.280;17.806;2023-07-29T04:20:34;3.05;;;1.88;;
35667;SDS011;22158;59.280;17.806;2023-07-29T04:23:00;4.10;;;2.20;;
35667;SDS011;22158;59.280;17.806;2023-07-29T04:25:25;2.22;;;1.88;;
35667;SDS011;22158;59.280;17.806;2023-07-29T04:27:51;3.90;;;2.20;;
35667;SDS011;22158;59.280;17.806;2023-07-29T04:30:16;3.03;;;2.10;;
35667;SDS011;22158;59.280;17.806;2023-07-29T04:32:42;4.95;;;2.33;;
35667;SDS011;22158;59.280;17.806;2023-07-29T04:35:09;3.33;;;2.53;;
35667;SDS011;22158;59.280;17.806;2023-07-29T04:37:35;3.88;;;1.75;;
35667;SDS011;22158;59.280;17.806;2023-07-29T04:40:01;4.38;;;2.20;;
35667;SDS011;22158;59.280;17.806;2023-07-29T04:42:27;3.15;;;2.13;;
35667;SDS011;22158;59.280;17.806;2023-07-29T04:44:53;4.75;;;2.78;;
35667;SDS011;22158;59.280;17.806;2023-07-29T04:47:18;3.90;;;2.30;;
35667;SDS011;22158;59.280;17.806;2023-07-29T04:49:44;3.28;;;1.95;;
35667;SDS011;22158;59.280;17.806;2023-07-29T04:52:09;3.45;;;1.88;;
35667;SDS011;22158;59.280;17.806;2023-07-29T04:54:35;4.78;;;1.83;;
35667;SDS011;22158;59.280;17.806;2023-07-29T04:57:00;6.35;;;2.30;;
35667;SDS011;22158;59.280;17.806;2023-07-29T04:59:26;4.82;;;2.58;;
35667;SDS011;22158;59.280;17.806;2023-07-29T05:01:52;2.65;;;1.85;;
35667;SDS011;22158;59.280;17.806;2023-07-29T05:04:17;3.67;;;2.25;;
35667;SDS011;22158;59.280;17.806;2023-07-29T05:06:43;6.72;;;2.28;;
35667;SDS011;22158;59.280;17.806;2023-07-29T05:09:15;3.67;;;2.15;;
35667;SDS011;22158;59.280;17.806;2023-07-29T05:11:42;3.05;;;2.30;;
35667;SDS011;22158;59.280;17.806;2023-07-29T05:14:10;3.08;;;2.20;;
35667;SDS011;22158;59.280;17.806;2023-07-29T05:16:36;2.97;;;2.10;;
35667;SDS011;22158;59.280;17.806;2023-07-29T05:19:02;3.33;;;2.47;;
35667;SDS011;22158;59.280;17.806;2023-07-29T05:21:27;3.80;;;2.53;;
35667;SDS011;22158;59.280;17.806;2023-07-29T05:23:53;3.97;;;2.05;;
35667;SDS011;22158;59.280;17.806;2023-07-29T05:26:18;2.85;;;2.13;;
35667;SDS011;22158;59.280;17.806;2023-07-29T05:28:44;2.90;;;2.05;;
35667;SDS011;22158;59.280;17.806;2023-07-29T05:31:10;3.50;;;2.13;;
35667;SDS011;22158;59.280;17.806;2023-07-29T05:33:35;5.70;;;1.92;;
35667;SDS011;22158;59.280;17.806;2023-07-29T05:36:01;4.53;;;2.13;;
35667;SDS011;22158;59.280;17.806;2023-07-29T05:38:27;3.60;;;2.38;;
35667;SDS011;22158;59.280;17.806;2023-07-29T05:40:52;2.80;;;1.80;;
35667;SDS011;22158;59.280;17.806;2023-07-29T05:43:18;3.28;;;2.35;;
35667;SDS011;22158;59.280;17.806;2023-07-29T05:45:43;3.33;;;1.92;;
35667;SDS011;22158;59.280;17.806;2023-07-29T05:48:09;2.63;;;2.40;;
35667;SDS011;22158;59.280;17.806;2023-07-29T05:50:35;3.55;;;1.85;;
35667;SDS011;22158;59.280;17.806;2023-07-29T05:53:00;3.85;;;2.45;;
35667;SDS011;22158;59.280;17.806;2023-07-29T05:55:26;4.03;;;2.30;;
35667;SDS011;22158;59.280;17.806;2023-07-29T05:57:51;3.65;;;2.05;;
35667;SDS011;22158;59.280;17.806;2023-07-29T06:00:17;2.72;;;1.95;;
35667;SDS011;22158;59.280;17.806;2023-07-29T06:02:43;2.20;;;1.73;;
35667;SDS011;22158;59.280;17.806;2023-07-29T06:05:08;5.03;;;2.20;;
35667;SDS011;22158;59.280;17.806;2023-07-29T06:07:34;3.80;;;2.10;;
35667;SDS011;22158;59.280;17.806;2023-07-29T06:09:59;2.75;;;1.80;;
35667;SDS011;22158;59.280;17.806;2023-07-29T06:12:25;3.38;;;1.95;;
35667;SDS011;22158;59.280;17.806;2023-07-29T06:14:51;2.10;;;1.80;;
35667;SDS011;22158;59.280;17.806;2023-07-29T06:17:17;3.17;;;1.80;;
35667;SDS011;22158;59.280;17.806;2023-07-29T06:19:43;3.33;;;1.80;;
35667;SDS011;22158;59.280;17.806;2023-07-29T06:22:09;4.50;;;2.53;;
35667;SDS011;22158;59.280;17.806;2023-07-29T06:24:35;4.55;;;1.92;;
35667;SDS011;22158;59.280;17.806;2023-07-29T06:27:00;2.85;;;1.90;;
35667;SDS011;22158;59.280;17.806;2023-07-29T06:29:26;2.80;;;2.10;;
35667;SDS011;22158;59.280;17.806;2023-07-29T06:31:52;4.30;;;1.65;;
35667;SDS011;22158;59.280;17.806;2023-07-29T06:34:18;3.40;;;2.03;;
35667;SDS011;22158;59.280;17.806;2023-07-29T06:36:43;2.40;;;2.00;;
35667;SDS011;22158;59.280;17.806;2023-07-29T06:39:09;6.90;;;1.85;;
35667;SDS011;22158;59.280;17.806;2023-07-29T06:41:35;2.60;;;1.73;;
35667;SDS011;22158;59.280;17.806;2023-07-29T06:44:00;1.80;;;1.60;;
35667;SDS011;22158;59.280;17.806;2023-07-29T06:46:26;3.33;;;2.20;;
35667;SDS011;22158;59.280;17.806;2023-07-29T06:48:51;2.30;;;1.58;;
35667;SDS011;22158;59.280;17.806;2023-07-29T06:51:17;2.50;;;1.98;;
35667;SDS011;22158;59.280;17.806;2023-07-29T06:53:43;3.15;;;2.30;;
35667;SDS011;22158;59.280;17.806;2023-07-29T06:56:08;2.55;;;1.50;;
35667;SDS011;22158;59.280;17.806;2023-07-29T06:58:34;5.18;;;1.45;;
35667;SDS011;22158;59.280;17.806;2023-07-29T07:01:00;1.90;;;1.65;;
35667;SDS011;22158;59.280;17.806;2023-07-29T07:03:25;1.85;;;1.50;;
35667;SDS011;22158;59.280;17.806;2023-07-29T07:05:51;2.22;;;1.88;;
35667;SDS011;22158;59.280;17.806;2023-07-29T07:08:16;5.32;;;1.85;;
35667;SDS011;22158;59.280;17.806;2023-07-29T07:10:42;2.67;;;1.83;;
35667;SDS011;22158;59.280;17.806;2023-07-29T07:13:07;3.30;;;2.15;;
35667;SDS011;22158;59.280;17.806;2023-07-29T07:15:33;3.20;;;1.92;;
35667;SDS011;22158;59.280;17.806;2023-07-29T07:17:58;4.18;;;1.88;;
35667;SDS011;22158;59.280;17.806;2023-07-29T07:20:24;2.88;;;1.80;;
35667;SDS011;22158;59.280;17.806;2023-07-29T07:22:50;2.10;;;1.60;;
35667;SDS011;22158;59.280;17.806;2023-07-29T07:25:15;2.28;;;1.70;;
35667;SDS011;22158;59.280;17.806;2023-07-29T07:27:41;3.08;;;2.00;;
35667;SDS011;22158;59.280;17.806;2023-07-29T07:30:06;3.38;;;1.67;;
35667;SDS011;22158;59.280;17.806;2023-07-29T07:32:32;2.08;;;1.55;;
35667;SDS011;22158;59.280;17.806;2023-07-29T07:34:58;2.08;;;1.30;;
35667;SDS011;22158;59.280;17.806;2023-07-29T07:37:23;2.00;;;1.60;;
35667;SDS011;22158;59.280;17.806;2023-07-29T07:39:49;4.65;;;1.77;;
35667;SDS011;22158;59.280;17.806;2023-07-29T07:42:15;2.75;;;1.63;;
35667;SDS011;22158;59.280;17.806;2023-07-29T07:44:40;3.58;;;2.13;;
35667;SDS011;22158;59.280;17.806;2023-07-29T07:47:06;3.58;;;1.38;;
35667;SDS011;22158;59.280;17.806;2023-07-29T07:49:31;4.97;;;1.92;;
35667;SDS011;22158;59.280;17.806;2023-07-29T07:51:57;7.60;;;2.40;;
35667;SDS011;22158;59.280;17.806;2023-07-29T07:54:23;2.17;;;1.55;;
35667;SDS011;22158;59.280;17.806;2023-07-29T07:56:48;3.17;;;1.60;;
35667;SDS011;22158;59.280;17.806;2023-07-29T07:59:14;3.38;;;1.55;;
35667;SDS011;22158;59.280;17.806;2023-07-29T08:01:39;3.50;;;1.45;;
35667;SDS011;22158;59.280;17.806;2023-07-29T08:04:05;2.60;;;1.80;;
35667;SDS011;22158;59.280;17.806;2023-07-29T08:06:31;4.30;;;1.90;;
35667;SDS011;22158;59.280;17.806;2023-07-29T08:08:57;4.88;;;1.88;;
35667;SDS011;22158;59.280;17.806;2023-07-29T08:11:23;2.33;;;1.60;;
35667;SDS011;22158;59.280;17.806;2023-07-29T08:13:48;2.17;;;1.55;;
35667;SDS011;22158;59.280;17.806;2023-07-29T08:16:14;1.85;;;1.20;;
35667;SDS011;22158;59.280;17.806;2023-07-29T08:18:40;5.93;;;1.80;;
35667;SDS011;22158;59.280;17.806;2023-07-29T08:21:05;1.58;;;1.30;;
35667;SDS011;22158;59.280;17.806;2023-07-29T08:23:32;3.13;;;1.38;;
35667;SDS011;22158;59.280;17.806;2023-07-29T08:25:59;2.90;;;1.70;;
35667;SDS011;22158;59.280;17.806;2023-07-29T08:28:27;2.53;;;1.20;;
35667;SDS011;22158;59.280;17.806;2023-07-29T08:30:53;1.92;;;1.30;;
35667;SDS011;22158;59.280;17.806;2023-07-29T08:33:19;4.07;;;1.80;;
35667;SDS011;22158;59.280;17.806;2023-07-29T08:35:45;4.10;;;1.88;;
35667;SDS011;22158;59.280;17.806;2023-07-29T08:38:10;2.85;;;1.65;;
35667;SDS011;22158;59.280;17.806;2023-07-29T08:40:38;2.65;;;1.50;;
35667;SDS011;22158;59.280;17.806;2023-07-29T08:43:10;4.43;;;1.30;;
35667;SDS011;22158;59.280;17.806;2023-07-29T08:45:37;2.88;;;1.50;;
35667;SDS011;22158;59.280;17.806;2023-07-29T08:48:07;3.28;;;1.15;;
35667;SDS011;22158;59.280;17.806;2023-07-29T08:50:35;2.60;;;1.30;;
35667;SDS011;22158;59.280;17.806;2023-07-29T08:53:03;3.78;;;1.48;;
35667;SDS011;22158;59.280;17.806;2023-07-29T08:55:30;2.45;;;1.33;;
35667;SDS011;22158;59.280;17.806;2023-07-29T08:57:57;3.17;;;1.25;;
35667;SDS011;22158;59.280;17.806;2023-07-29T09:00:25;1.70;;;1.17;;
35667;SDS011;22158;59.280;17.806;2023-07-29T09:02:51;2.55;;;1.35;;
35667;SDS011;22158;59.280;17.806;2023-07-29T09:05:16;2.55;;;1.33;;
35667;SDS011;22158;59.280;17.806;2023-07-29T09:07:42;1.98;;;1.40;;
35667;SDS011;22158;59.280;17.806;2023-07-29T09:10:09;3.80;;;1.35;;
35667;SDS011;22158;59.280;17.806;2023-07-29T09:12:35;1.90;;;1.10;;
35667;SDS011;22158;59.280;17.806;2023-07-29T09:15:01;1.95;;;1.33;;
35667;SDS011;22158;59.280;17.806;2023-07-29T09:17:30;2.50;;;1.40;;
35667;SDS011;22158;59.280;17.806;2023-07-29T09:19:57;1.13;;;1.02;;
35667;SDS011;22158;59.280;17.806;2023-07-29T09:22:23;1.75;;;1.20;;
35667;SDS011;22158;59.280;17.806;2023-07-29T09:24:51;1.77;;;1.17;;
35667;SDS011;22158;59.280;17.806;2023-07-29T09:27:23;1.58;;;1.13;;
35667;SDS011;22158;59.280;17.806;2023-07-29T09:29:50;4.90;;;1.40;;
35667;SDS011;22158;59.280;17.806;2023-07-29T09:32:20;1.85;;;1.35;;
35667;SDS011;22158;59.280;17.806;2023-07-29T09:34:47;3.67;;;1.42;;
35667;SDS011;22158;59.280;17.806;2023-07-29T09:37:16;1.98;;;1.10;;
35667;SDS011;22158;59.280;17.806;2023-07-29T09:39:46;1.73;;;1.25;;
35667;SDS011;22158;59.280;17.806;2023-07-29T09:42:17;2.80;;;1.40;;
35667;SDS011;22158;59.280;17.806;2023-07-29T09:44:48;2.00;;;1.33;;
35667;SDS011;22158;59.280;17.806;2023-07-29T09:47:18;3.65;;;1.13;;
35667;SDS011;22158;59.280;17.806;2023-07-29T09:49:48;3.65;;;1.40;;
35667;SDS011;22158;59.280;17.806;2023-07-29T09:52:22;2.17;;;1.35;;
35667;SDS011;22158;59.280;17.806;2023-07-29T09:54:48;5.05;;;1.52;;
35667;SDS011;22158;59.280;17.806;2023-07-29T09:57:14;1.63;;;1.20;;
35667;SDS011;22158;59.280;17.806;2023-07-29T09:59:41;1.60;;;1.13;;
35667;SDS011;22158;59.280;17.806;2023-07-29T10:02:08;2.60;;;1.48;;
35667;SDS011;22158;59.280;17.806;2023-07-29T10:04:41;4.40;;;1.58;;
35667;SDS011;22158;59.280;17.806;2023-07-29T10:07:07;2.00;;;1.20;;
35667;SDS011;22158;59.280;17.806;2023-07-29T10:09:35;3.90;;;1.23;;
35667;SDS011;22158;59.280;17.806;2023-07-29T10:12:01;2.83;;;1.25;;
35667;SDS011;22158;59.280;17.806;2023-07-29T10:14:28;2.88;;;1.70;;
35667;SDS011;22158;59.280;17.806;2023-07-29T10:16:55;3.15;;;1.48;;
35667;SDS011;22158;59.280;17.806;2023-07-29T10:19:22;1.58;;;1.23;;
35667;SDS011;22158;59.280;17.806;2023-07-29T10:21:50;1.60;;;1.30;;
35667;SDS011;22158;59.280;17.806;2023-07-29T10:24:18;1.85;;;1.08;;
35667;SDS011;22158;59.280;17.806;2023-07-29T10:26:47;2.42;;;1.33;;
35667;SDS011;22158;59.280;17.806;2023-07-29T10:29:15;1.88;;;1.25;;
35667;SDS011;22158;59.280;17.806;2023-07-29T10:31:48;1.33;;;1.10;;
35667;SDS011;22158;59.280;17.806;2023-07-29T10:34:17;1.75;;;1.05;;
35667;SDS011;22158;59.280;17.806;2023-07-29T10:36:43;2.20;;;1.25;;
35667;SDS011;22158;59.280;17.806;2023-07-29T10:39:10;1.27;;;1.00;;
35667;SDS011;22158;59.280;17.806;2023-07-29T10:42:09;1.58;;;1.00;;
35667;SDS011;22158;59.280;17.806;2023-07-29T10:47:18;3.83;;;2.45;;
35667;SDS011;22158;59.280;17.806;2023-07-29T10:49:46;3.25;;;1.10;;
35667;SDS011;22158;59.280;17.806;2023-07-29T10:52:14;3.88;;;1.20;;
35667;SDS011;22158;59.280;17.806;2023-07-29T10:54:45;3.53;;;1.77;;
35667;SDS011;22158;59.280;17.806;2023-07-29T10:57:15;1.77;;;1.38;;
35667;SDS011;22158;59.280;17.806;2023-07-29T10:59:56;2.47;;;1.60;;
35667;SDS011;22158;59.280;17.806;2023-07-29T11:02:28;2.85;;;1.60;;
35667;SDS011;22158;59.280;17.806;2023-07-29T11:04:55;2.83;;;1.13;;
35667;SDS011;22158;59.280;17.806;2023-07-29T11:07:21;1.55;;;1.00;;
35667;SDS011;22158;59.280;17.806;2023-07-29T11:09:54;3.67;;;1.48;;
35667;SDS011;22158;59.280;17.806;2023-07-29T11:17:36;3.70;;;1.40;;
35667;SDS011;22158;59.280;17.806;2023-07-29T11:20:04;3.78;;;1.35;;
35667;SDS011;22158;59.280;17.806;2023-07-29T11:22:32;3.15;;;1.73;;
35667;SDS011;22158;59.280;17.806;2023-07-29T11:24:58;1.42;;;0.93;;
35667;SDS011;22158;59.280;17.806;2023-07-29T11:27:24;4.88;;;1.40;;
35667;SDS011;22158;59.280;17.806;2023-07-29T11:29:49;2.17;;;1.17;;
35667;SDS011;22158;59.280;17.806;2023-07-29T11:32:15;1.60;;;1.05;;
35667;SDS011;22158;59.280;17.806;2023-07-29T11:34:41;2.60;;;1.58;;
35667;SDS011;22158;59.280;17.806;2023-07-29T11:37:11;2.00;;;1.10;;
35667;SDS011;22158;59.280;17.806;2023-07-29T11:39:40;3.88;;;1.40;;
35667;SDS011;22158;59.280;17.806;2023-07-29T11:42:06;3.15;;;1.20;;
35667;SDS011;22158;59.280;17.806;2023-07-29T11:44:32;1.83;;;1.23;;
35667;SDS011;22158;59.280;17.806;2023-07-29T11:46:57;4.25;;;1.20;;
35667;SDS011;22158;59.280;17.806;2023-07-29T11:49:23;2.95;;;1.33;;
35667;SDS011;22158;59.280;17.806;2023-07-29T11:51:48;1.23;;;0.98;;
35667;SDS011;22158;59.280;17.806;2023-07-29T11:54:14;1.83;;;1.00;;
35667;SDS011;22158;59.280;17.806;2023-07-29T11:56:40;2.13;;;1.30;;
35667;SDS011;22158;59.280;17.806;2023-07-29T11:59:06;1.45;;;1.10;;
35667;SDS011;22158;59.280;17.806;2023-07-29T12:01:32;1.33;;;0.95;;
35667;SDS011;22158;59.280;17.806;2023-07-29T12:03:58;6.32;;;1.20;;
35667;SDS011;22158;59.280;17.806;2023-07-29T12:06:24;2.90;;;0.95;;
35667;SDS011;22158;59.280;17.806;2023-07-29T12:08:50;1.63;;;1.00;;
35667;SDS011;22158;59.280;17.806;2023-07-29T12:11:16;4.50;;;1.02;;
35667;SDS011;22158;59.280;17.806;2023-07-29T12:13:42;3.75;;;1.40;;
35667;SDS011;22158;59.280;17.806;2023-07-29T12:16:08;2.92;;;1.17;;
35667;SDS011;22158;59.280;17.806;2023-07-29T12:18:35;4.15;;;1.02;;
35667;SDS011;22158;59.280;17.806;2023-07-29T12:21:01;3.75;;;1.20;;
35667;SDS011;22158;59.280;17.806;2023-07-29T12:23:28;2.85;;;1.30;;
35667;SDS011;22158;59.280;17.806;2023-07-29T12:25:57;1.10;;;0.82;;
35667;SDS011;22158;59.280;17.806;2023-07-29T12:28:24;2.25;;;1.17;;
35667;SDS011;22158;59.280;17.806;2023-07-29T12:30:53;0.90;;;0.80;;
35667;SDS011;22158;59.280;17.806;2023-07-29T12:33:35;1.45;;;1.17;;
35667;SDS011;22158;59.280;17.806;2023-07-29T12:36:04;1.88;;;1.10;;
35667;SDS011;22158;59.280;17.806;2023-07-29T12:38:30;1.65;;;1.00;;
35667;SDS011;22158;59.280;17.806;2023-07-29T12:40:55;2.00;;;1.27;;
35667;SDS011;22158;59.280;17.806;2023-07-29T12:43:21;1.02;;;0.90;;
35667;SDS011;22158;59.280;17.806;2023-07-29T12:45:50;4.20;;;1.30;;
35667;SDS011;22158;59.280;17.806;2023-07-29T12:48:16;2.70;;;1.33;;
35667;SDS011;22158;59.280;17.806;2023-07-29T12:50:42;2.33;;;1.40;;
35667;SDS011;22158;59.280;17.806;2023-07-29T12:53:08;2.10;;;1.33;;
35667;SDS011;22158;59.280;17.806;2023-07-29T12:55:37;1.30;;;1.02;;
35667;SDS011;22158;59.280;17.806;2023-07-29T12:58:03;1.42;;;1.00;;
35667;SDS011;22158;59.280;17.806;2023-07-29T13:00:29;1.67;;;1.20;;
35667;SDS011;22158;59.280;17.806;2023-07-29T13:02:55;2.03;;;1.20;;
35667;SDS011;22158;59.280;17.806;2023-07-29T13:05:21;4.18;;;1.40;;
35667;SDS011;22158;59.280;17.806;2023-07-29T13:07:46;1.70;;;1.23;;
35667;SDS011;22158;59.280;17.806;2023-07-29T13:10:12;3.40;;;1.42;;
35667;SDS011;22158;59.280;17.806;2023-07-29T13:12:38;2.88;;;1.40;;
35667;SDS011;22158;59.280;17.806;2023-07-29T13:15:04;1.92;;;1.20;;
35667;SDS011;22158;59.280;17.806;2023-07-29T13:17:32;2.35;;;1.35;;
35667;SDS011;22158;59.280;17.806;2023-07-29T13:19:58;1.88;;;1.13;;
35667;SDS011;22158;59.280;17.806;2023-07-29T13:22:24;3.38;;;1.20;;
35667;SDS011;22158;59.280;17.806;2023-07-29T13:24:50;3.00;;;1.30;;
35667;SDS011;22158;59.280;17.806;2023-07-29T13:27:15;2.20;;;1.40;;
35667;SDS011;22158;59.280;17.806;2023-07-29T13:29:41;1.23;;;1.05;;
35667;SDS011;22158;59.280;17.806;2023-07-29T13:32:08;1.90;;;1.23;;
35667;SDS011;22158;59.280;17.806;2023-07-29T13:34:34;1.95;;;1.40;;
35667;SDS011;22158;59.280;17.806;2023-07-29T13:36:59;2.47;;;1.50;;
35667;SDS011;22158;59.280;17.806;2023-07-29T13:39:25;1.73;;;1.10;;
35667;SDS011;22158;59.280;17.806;2023-07-29T13:41:51;1.50;;;1.33;;
35667;SDS011;22158;59.280;17.806;2023-07-29T13:44:16;3.92;;;1.65;;
35667;SDS011;22158;59.280;17.806;2023-07-29T13:46:42;2.72;;;1.50;;
35667;SDS011;22158;59.280;17.806;2023-07-29T13:49:07;2.78;;;1.45;;
35667;SDS011;22158;59.280;17.806;2023-07-29T13:51:33;1.73;;;1.63;;
35667;SDS011;22158;59.280;17.806;2023-07-29T13:53:58;1.67;;;1.30;;
35667;SDS011;22158;59.280;17.806;2023-07-29T13:56:24;2.30;;;1.55;;
35667;SDS011;22158;59.280;17.806;2023-07-29T13:58:49;1.75;;;1.40;;
35667;SDS011;22158;59.280;17.806;2023-07-29T14:01:15;2.42;;;1.42;;
35667;SDS011;22158;59.280;17.806;2023-07-29T14:03:41;2.83;;;2.03;;
35667;SDS011;22158;59.280;17.806;2023-07-29T14:06:06;2.58;;;1.40;;
35667;SDS011;22158;59.280;17.806;2023-07-29T14:08:32;2.33;;;1.48;;
35667;SDS011;22158;59.280;17.806;2023-07-29T14:10:57;2.15;;;1.40;;
35667;SDS011;22158;59.280;17.806;2023-07-29T14:13:23;2.72;;;1.30;;
35667;SDS011;22158;59.280;17.806;2023-07-29T14:15:48;2.60;;;1.15;;
35667;SDS011;22158;59.280;17.806;2023-07-29T14:18:14;1.85;;;1.30;;
35667;SDS011;22158;59.280;17.806;2023-07-29T14:20:40;3.10;;;1.48;;
35667;SDS011;22158;59.280;17.806;2023-07-29T14:23:06;1.77;;;1.20;;
35667;SDS011;22158;59.280;17.806;2023-07-29T14:25:31;2.35;;;1.42;;
35667;SDS011;22158;59.280;17.806;2023-07-29T14:27:57;2.22;;;1.30;;
35667;SDS011;22158;59.280;17.806;2023-07-29T14:30:22;2.58;;;1.27;;
35667;SDS011;22158;59.280;17.806;2023-07-29T14:32:48;2.60;;;1.25;;
35667;SDS011;22158;59.280;17.806;2023-07-29T14:35:13;1.50;;;1.27;;
35667;SDS011;22158;59.280;17.806;2023-07-29T14:37:39;3.63;;;1.35;;
35667;SDS011;22158;59.280;17.806;2023-07-29T14:40:05;2.25;;;1.15;;
35667;SDS011;22158;59.280;17.806;2023-07-29T14:42:31;2.33;;;1.33;;
35667;SDS011;22158;59.280;17.806;2023-07-29T14:44:57;2.63;;;1.45;;